Sint-Katelijne-Waver, Belgium
Current Conditions -  °F | °C
As of 9:50 PM on Tuesday 27 Jan 2015 (Local Time) from EBAW Reporting Station
Broken Clouds Broken Clouds  
Wind Chill:   Ceiling: 3300
Heat Index:   Visibility: 6mi
Dew Point:   Wind: 8mph
Humidity: 87%   Direction: 240°WSW
Pressure: 30.21"   Gusts: NA
Location:  51.07°N, 4.53°E
Report Text: EBAW 272050Z 24007KT 9999 BKN033 05/03 Q1023 NOSIG
Loading
Personal Weather Stations






























Interactive Weather Map New forecast layout! Learn more

10-Day Weather Forecast

Advertisements
Track Severe Weather on mobile